AAL3078 KDCA-KRDU
Flight info
| Callsign | AAL3078 |
|---|---|
| Flight time | N/A |
| Altitude | 22000 |
| Route | JDUBB4 MELTN ALDAN4 |
| Aircraft | A319/M-SDE3FGHIRWY/LB1 |
Departure
| Time | 2026-05-05 23:49 |
|---|---|
| Airport | Ronald Reagan Washington National Airport (KDCA) |
Arrival
| Time | N/A |
|---|---|
| Airport | Raleigh-Durham International Airport (KRDU) |
| Time | Latitude | Longitude | Altitude | Speed | Heading |
|---|---|---|---|---|---|
| 2026-05-05 23:29 | 38.85562 | -77.04221 | 27 ft | 0 kts | 337° |
| 2026-05-05 23:40 | 38.85557 | -77.04218 | 24 ft | 4 kts | 337° |
| 2026-05-05 23:40 | 38.85533 | -77.04206 | 25 ft | 2 kts | 337° |
| 2026-05-05 23:40 | 38.85516 | -77.04199 | 24 ft | 4 kts | 33° |
| 2026-05-05 23:40 | 38.85504 | -77.04224 | 24 ft | 3 kts | 72° |
| 2026-05-05 23:41 | 38.85498 | -77.04246 | 24 ft | 0 kts | 72° |
| 2026-05-05 23:43 | 38.85503 | -77.04227 | 26 ft | 5 kts | 72° |
| 2026-05-05 23:43 | 38.85517 | -77.04172 | 24 ft | 7 kts | 72° |
| 2026-05-05 23:44 | 38.85534 | -77.04102 | 25 ft | 9 kts | 72° |
| 2026-05-05 23:44 | 38.85571 | -77.04038 | 24 ft | 10 kts | 23° |
| 2026-05-05 23:44 | 38.85641 | -77.04042 | 25 ft | 11 kts | 355° |
| 2026-05-05 23:44 | 38.85717 | -77.04050 | 27 ft | 11 kts | 356° |
| 2026-05-05 23:45 | 38.85796 | -77.04057 | 28 ft | 12 kts | 355° |
| 2026-05-05 23:45 | 38.85885 | -77.04066 | 25 ft | 14 kts | 355° |
| 2026-05-05 23:45 | 38.85937 | -77.03993 | 24 ft | 13 kts | 60° |
| 2026-05-05 23:45 | 38.86008 | -77.03955 | 25 ft | 5 kts | 15° |
| 2026-05-05 23:46 | 38.86012 | -77.03953 | 24 ft | 0 kts | 16° |
| 2026-05-05 23:47 | 38.86014 | -77.03952 | 24 ft | 2 kts | 17° |
| 2026-05-05 23:48 | 38.86037 | -77.03943 | 24 ft | 5 kts | 17° |
| 2026-05-05 23:48 | 38.86078 | -77.03920 | 25 ft | 7 kts | 42° |
| 2026-05-05 23:48 | 38.86083 | -77.03870 | 23 ft | 4 kts | 138° |
| 2026-05-05 23:48 | 38.86073 | -77.03869 | 23 ft | 5 kts | 176° |
| 2026-05-05 23:49 | 38.85867 | -77.03847 | 28 ft | 59 kts | 175° |
| 2026-05-05 23:49 | 38.85259 | -77.03787 | 25 ft | 115 kts | 175° |
| 2026-05-05 23:49 | 38.84299 | -77.03690 | 187 ft | 148 kts | 178° |
| 2026-05-05 23:49 | 38.83290 | -77.03608 | 845 ft | 145 kts | 181° |
| 2026-05-05 23:50 | 38.82289 | -77.03587 | 1488 ft | 143 kts | 183° |
| 2026-05-05 23:50 | 38.81281 | -77.03573 | 1978 ft | 152 kts | 183° |
| 2026-05-05 23:50 | 38.80147 | -77.03564 | 2266 ft | 174 kts | 182° |
| 2026-05-05 23:50 | 38.78842 | -77.03550 | 2576 ft | 201 kts | 182° |
| 2026-05-05 23:51 | 38.77356 | -77.03532 | 3034 ft | 226 kts | 182° |
| 2026-05-05 23:51 | 38.75760 | -77.03832 | 3643 ft | 239 kts | 206° |
| 2026-05-05 23:51 | 38.74584 | -77.05338 | 4568 ft | 248 kts | 242° |
| 2026-05-05 23:51 | 38.74172 | -77.07509 | 5626 ft | 254 kts | 260° |
| 2026-05-05 23:52 | 38.74109 | -77.09782 | 6681 ft | 257 kts | 265° |
| 2026-05-05 23:52 | 38.74118 | -77.12082 | 7666 ft | 259 kts | 263° |
| 2026-05-05 23:52 | 38.73797 | -77.14342 | 8536 ft | 259 kts | 248° |
| 2026-05-05 23:52 | 38.73134 | -77.16507 | 9405 ft | 262 kts | 244° |
| 2026-05-05 23:53 | 38.72381 | -77.18643 | 10252 ft | 266 kts | 243° |
| 2026-05-05 23:53 | 38.71530 | -77.20851 | 10600 ft | 289 kts | 239° |
| 2026-05-05 23:53 | 38.70311 | -77.22967 | 10918 ft | 308 kts | 228° |
| 2026-05-05 23:53 | 38.68698 | -77.24835 | 11581 ft | 316 kts | 222° |
| 2026-05-05 23:54 | 38.67018 | -77.26668 | 12334 ft | 319 kts | 223° |
| 2026-05-05 23:54 | 38.65330 | -77.28525 | 13079 ft | 322 kts | 223° |
| 2026-05-05 23:54 | 38.63623 | -77.30410 | 13750 ft | 326 kts | 223° |
| 2026-05-05 23:54 | 38.61893 | -77.32323 | 14393 ft | 331 kts | 223° |
| 2026-05-05 23:55 | 38.60139 | -77.34260 | 15029 ft | 335 kts | 223° |
| 2026-05-05 23:55 | 38.58359 | -77.36219 | 15634 ft | 341 kts | 223° |
| 2026-05-05 23:55 | 38.56547 | -77.38213 | 16219 ft | 346 kts | 223° |
| 2026-05-05 23:55 | 38.54709 | -77.40238 | 16820 ft | 350 kts | 223° |
| 2026-05-05 23:56 | 38.52853 | -77.42283 | 17413 ft | 355 kts | 223° |
| 2026-05-05 23:56 | 38.50971 | -77.44350 | 17976 ft | 359 kts | 223° |
| 2026-05-05 23:56 | 38.49064 | -77.46436 | 18545 ft | 364 kts | 223° |
| 2026-05-05 23:56 | 38.47127 | -77.48550 | 19130 ft | 368 kts | 223° |
| 2026-05-05 23:57 | 38.45173 | -77.50685 | 19696 ft | 372 kts | 223° |
| 2026-05-05 23:57 | 38.43202 | -77.52843 | 20271 ft | 375 kts | 223° |
| 2026-05-05 23:57 | 38.41214 | -77.55020 | 20842 ft | 378 kts | 223° |
| 2026-05-05 23:57 | 38.39160 | -77.57143 | 21372 ft | 384 kts | 217° |
| 2026-05-05 23:58 | 38.36940 | -77.59064 | 21802 ft | 387 kts | 216° |
| 2026-05-05 23:58 | 38.34703 | -77.60982 | 21913 ft | 388 kts | 216° |
| 2026-05-05 23:58 | 38.32451 | -77.62903 | 21925 ft | 390 kts | 216° |
| 2026-05-05 23:58 | 38.30192 | -77.64825 | 21924 ft | 390 kts | 216° |
| 2026-05-05 23:59 | 38.27934 | -77.66747 | 21924 ft | 391 kts | 216° |
| 2026-05-05 23:59 | 38.25679 | -77.68678 | 21933 ft | 390 kts | 216° |
| 2026-05-05 23:59 | 38.23431 | -77.70613 | 21934 ft | 391 kts | 216° |
| 2026-05-05 23:59 | 38.21180 | -77.72553 | 21934 ft | 390 kts | 216° |
| 2026-05-06 00:00 | 38.18964 | -77.74465 | 21934 ft | 390 kts | 216° |
| 2026-05-06 00:00 | 38.16715 | -77.76402 | 21935 ft | 390 kts | 216° |
| 2026-05-06 00:00 | 38.14466 | -77.78336 | 21938 ft | 390 kts | 216° |
| 2026-05-06 00:00 | 38.12212 | -77.80272 | 21938 ft | 389 kts | 216° |
| 2026-05-06 00:01 | 38.09966 | -77.82198 | 21938 ft | 389 kts | 216° |
| 2026-05-06 00:01 | 38.07722 | -77.84114 | 21936 ft | 389 kts | 216° |
| 2026-05-06 00:01 | 38.05467 | -77.86038 | 21936 ft | 389 kts | 216° |
| 2026-05-06 00:01 | 38.03219 | -77.87958 | 21937 ft | 390 kts | 216° |
| 2026-05-06 00:02 | 38.00970 | -77.89880 | 21939 ft | 390 kts | 216° |
| 2026-05-06 00:02 | 37.98722 | -77.91801 | 21941 ft | 390 kts | 216° |
| 2026-05-06 00:02 | 37.96475 | -77.93718 | 21942 ft | 390 kts | 216° |
| 2026-05-06 00:02 | 37.94228 | -77.95635 | 21944 ft | 389 kts | 216° |
| 2026-05-06 00:03 | 37.91977 | -77.97553 | 21944 ft | 390 kts | 216° |
| 2026-05-06 00:03 | 37.89725 | -77.99468 | 21945 ft | 390 kts | 216° |
| 2026-05-06 00:03 | 37.87471 | -78.01382 | 21947 ft | 390 kts | 216° |
| 2026-05-06 00:03 | 37.85217 | -78.03297 | 21948 ft | 390 kts | 216° |
| 2026-05-06 00:04 | 37.82962 | -78.05215 | 21952 ft | 390 kts | 216° |
| 2026-05-06 00:04 | 37.80709 | -78.07130 | 21954 ft | 390 kts | 216° |
| 2026-05-06 00:04 | 37.78455 | -78.09043 | 21957 ft | 391 kts | 216° |
| 2026-05-06 00:04 | 37.76226 | -78.10932 | 21959 ft | 391 kts | 216° |
| 2026-05-06 00:05 | 37.71704 | -78.14747 | 21957 ft | 391 kts | 216° |
| 2026-05-06 00:05 | 37.69444 | -78.16651 | 21959 ft | 391 kts | 216° |
| 2026-05-06 00:05 | 37.67184 | -78.18557 | 21959 ft | 390 kts | 216° |
| 2026-05-06 00:06 | 37.64924 | -78.20466 | 21958 ft | 391 kts | 216° |
| 2026-05-06 00:06 | 37.62665 | -78.22378 | 21960 ft | 390 kts | 216° |
| 2026-05-06 00:06 | 37.60410 | -78.24282 | 21961 ft | 390 kts | 216° |
| 2026-05-06 00:06 | 37.58151 | -78.26186 | 21960 ft | 390 kts | 216° |
| 2026-05-06 00:07 | 37.55897 | -78.28082 | 21960 ft | 390 kts | 216° |
| 2026-05-06 00:07 | 37.53638 | -78.29984 | 21957 ft | 390 kts | 216° |
| 2026-05-06 00:07 | 37.51375 | -78.31889 | 21954 ft | 390 kts | 216° |
| 2026-05-06 00:07 | 37.49120 | -78.33785 | 21953 ft | 390 kts | 216° |
| 2026-05-06 00:08 | 37.46866 | -78.35677 | 21955 ft | 390 kts | 216° |
| 2026-05-06 00:08 | 37.44607 | -78.37570 | 21954 ft | 390 kts | 216° |
| 2026-05-06 00:08 | 37.42347 | -78.39456 | 21954 ft | 390 kts | 216° |
| 2026-05-06 00:08 | 37.40089 | -78.41339 | 21954 ft | 389 kts | 216° |
| 2026-05-06 00:09 | 37.37864 | -78.43201 | 21956 ft | 389 kts | 216° |
| 2026-05-06 00:09 | 37.35622 | -78.45084 | 21963 ft | 387 kts | 216° |
| 2026-05-06 00:09 | 37.33379 | -78.46967 | 21968 ft | 387 kts | 216° |
| 2026-05-06 00:09 | 37.31142 | -78.48840 | 21968 ft | 387 kts | 216° |
| 2026-05-06 00:10 | 37.28903 | -78.50704 | 21966 ft | 386 kts | 216° |
| 2026-05-06 00:10 | 37.26659 | -78.52568 | 21963 ft | 386 kts | 216° |
| 2026-05-06 00:10 | 37.24421 | -78.54429 | 21961 ft | 385 kts | 216° |
| 2026-05-06 00:10 | 37.22188 | -78.56285 | 21958 ft | 385 kts | 216° |
| 2026-05-06 00:11 | 37.20677 | -78.57541 | 21957 ft | 385 kts | 216° |
| 2026-05-06 00:11 | 37.18442 | -78.59402 | 21956 ft | 385 kts | 217° |
| 2026-05-06 00:11 | 37.16208 | -78.61262 | 21955 ft | 386 kts | 217° |
| 2026-05-06 00:11 | 37.13974 | -78.63119 | 21955 ft | 386 kts | 217° |
| 2026-05-06 00:12 | 37.11736 | -78.64978 | 21954 ft | 386 kts | 217° |
| 2026-05-06 00:12 | 37.09495 | -78.66838 | 21954 ft | 387 kts | 217° |
| 2026-05-06 00:12 | 37.07252 | -78.68698 | 21959 ft | 387 kts | 217° |
| 2026-05-06 00:12 | 37.05007 | -78.70555 | 21959 ft | 387 kts | 217° |
| 2026-05-06 00:13 | 37.02754 | -78.72416 | 21960 ft | 387 kts | 217° |
| 2026-05-06 00:13 | 37.00510 | -78.74272 | 21962 ft | 387 kts | 217° |
| 2026-05-06 00:13 | 36.98261 | -78.76134 | 21962 ft | 387 kts | 217° |
| 2026-05-06 00:13 | 36.96014 | -78.77989 | 21963 ft | 387 kts | 217° |
| 2026-05-06 00:14 | 36.93769 | -78.79844 | 21966 ft | 388 kts | 217° |
| 2026-05-06 00:14 | 36.91516 | -78.81705 | 21968 ft | 388 kts | 217° |
| 2026-05-06 00:14 | 36.89303 | -78.83531 | 21780 ft | 382 kts | 217° |
| 2026-05-06 00:14 | 36.87086 | -78.85348 | 21637 ft | 370 kts | 217° |
| 2026-05-06 00:15 | 36.84983 | -78.87070 | 21501 ft | 351 kts | 217° |
| 2026-05-06 00:15 | 36.82995 | -78.88699 | 21157 ft | 335 kts | 217° |
| 2026-05-06 00:15 | 36.81072 | -78.90279 | 20578 ft | 328 kts | 217° |
| 2026-05-06 00:15 | 36.79181 | -78.91834 | 19927 ft | 324 kts | 217° |
| 2026-05-06 00:16 | 36.77306 | -78.93376 | 19333 ft | 320 kts | 216° |
| 2026-05-06 00:16 | 36.75476 | -78.94880 | 18886 ft | 317 kts | 217° |
| 2026-05-06 00:16 | 36.73638 | -78.96393 | 18444 ft | 316 kts | 216° |
| 2026-05-06 00:16 | 36.71805 | -78.97898 | 18006 ft | 315 kts | 216° |
| 2026-05-06 00:17 | 36.69960 | -78.99352 | 17564 ft | 315 kts | 210° |
| 2026-05-06 00:17 | 36.67922 | -79.00325 | 17127 ft | 317 kts | 197° |
| 2026-05-06 00:17 | 36.65730 | -79.00648 | 16734 ft | 319 kts | 184° |
| 2026-05-06 00:17 | 36.63514 | -79.00291 | 16358 ft | 322 kts | 171° |
| 2026-05-06 00:18 | 36.61355 | -78.99652 | 15832 ft | 317 kts | 171° |
| 2026-05-06 00:18 | 36.59215 | -78.99027 | 15302 ft | 315 kts | 171° |
| 2026-05-06 00:18 | 36.57074 | -78.98408 | 14839 ft | 315 kts | 171° |
| 2026-05-06 00:18 | 36.54974 | -78.97800 | 14511 ft | 312 kts | 171° |
| 2026-05-06 00:19 | 36.52861 | -78.97188 | 14039 ft | 312 kts | 171° |
| 2026-05-06 00:19 | 36.50769 | -78.96584 | 13601 ft | 306 kts | 172° |
| 2026-05-06 00:19 | 36.48702 | -78.95988 | 13106 ft | 303 kts | 172° |
| 2026-05-06 00:19 | 36.46651 | -78.95397 | 12668 ft | 303 kts | 172° |
| 2026-05-06 00:20 | 36.44596 | -78.94801 | 12320 ft | 300 kts | 171° |
| 2026-05-06 00:20 | 36.42563 | -78.94210 | 11914 ft | 299 kts | 171° |
| 2026-05-06 00:20 | 36.40578 | -78.93451 | 11529 ft | 302 kts | 160° |
| 2026-05-06 00:20 | 36.38787 | -78.92067 | 11192 ft | 305 kts | 144° |
| 2026-05-06 00:21 | 36.37258 | -78.90204 | 10739 ft | 308 kts | 138° |
| 2026-05-06 00:21 | 36.35773 | -78.88300 | 10358 ft | 306 kts | 138° |
| 2026-05-06 00:21 | 36.34318 | -78.86438 | 9997 ft | 303 kts | 139° |
| 2026-05-06 00:21 | 36.32852 | -78.84569 | 9626 ft | 301 kts | 139° |